createdAt,value
2022-08-26T00:02:06.032Z,3.35
2022-08-26T00:04:34.340Z,4.03
2022-08-26T00:07:03.445Z,3.72
2022-08-26T00:09:33.118Z,3.80
2022-08-26T00:12:05.441Z,3.45
2022-08-26T00:14:32.478Z,4.10
2022-08-26T00:17:00.031Z,4.25
2022-08-26T00:19:28.078Z,3.97
2022-08-26T00:21:55.268Z,3.72
2022-08-26T00:24:23.574Z,4.00
2022-08-26T00:26:51.605Z,4.50
2022-08-26T00:29:21.367Z,3.83
2022-08-26T00:31:50.335Z,4.25
2022-08-26T00:34:19.381Z,3.83
2022-08-26T00:36:49.257Z,3.88
2022-08-26T00:39:20.747Z,4.10
2022-08-26T00:41:49.029Z,3.70
2022-08-26T00:44:17.534Z,3.97
2022-08-26T00:46:53.594Z,3.75
2022-08-26T00:49:53.539Z,3.42
2022-08-26T00:52:23.850Z,3.70
2022-08-26T00:55:02.875Z,3.90
2022-08-26T00:57:32.926Z,3.75
2022-08-26T01:00:07.402Z,3.50
2022-08-26T01:02:36.226Z,3.75
2022-08-26T01:05:06.939Z,3.53
2022-08-26T01:07:35.793Z,3.90
2022-08-26T01:10:15.377Z,3.60
2022-08-26T01:12:49.759Z,3.60
2022-08-26T01:15:24.325Z,3.60
2022-08-26T01:17:51.906Z,3.20
2022-08-26T01:20:46.424Z,3.40
2022-08-26T01:23:15.031Z,3.58
2022-08-26T01:25:52.861Z,3.10
2022-08-26T01:28:28.105Z,2.90
2022-08-26T01:30:57.936Z,3.22
2022-08-26T01:33:55.214Z,3.25
2022-08-26T01:36:23.926Z,3.42
2022-08-26T01:38:51.386Z,3.22
2022-08-26T01:41:27.310Z,3.30
2022-08-26T01:43:57.944Z,3.28
2022-08-26T01:46:29.954Z,3.28
2022-08-26T01:51:29.678Z,2.80
2022-08-26T01:53:57.814Z,3.25
2022-08-26T01:56:33.113Z,2.97
2022-08-26T01:59:08.516Z,3.00
2022-08-26T02:01:38.214Z,2.83
2022-08-26T02:04:41.497Z,2.80
2022-08-26T02:07:10.371Z,3.00
2022-08-26T02:09:41.249Z,3.00
2022-08-26T02:12:12.753Z,2.83
2022-08-26T02:14:50.037Z,2.90
2022-08-26T02:17:26.288Z,2.80
2022-08-26T02:19:53.949Z,3.17
2022-08-26T02:22:24.811Z,3.13
2022-08-26T02:25:08.305Z,3.10
2022-08-26T02:27:36.127Z,2.72
2022-08-26T02:30:24.203Z,3.15
2022-08-26T02:32:54.746Z,3.10
2022-08-26T02:35:24.005Z,3.00
2022-08-26T02:37:53.075Z,3.17
2022-08-26T02:40:30.318Z,2.88
2022-08-26T02:42:57.885Z,3.08
2022-08-26T02:45:27.982Z,3.10
2022-08-26T02:47:58.066Z,3.13
2022-08-26T02:50:27.806Z,3.00
2022-08-26T02:52:55.749Z,2.83
2022-08-26T02:55:24.799Z,3.10
2022-08-26T02:57:52.525Z,3.45
2022-08-26T03:00:19.962Z,3.05
2022-08-26T03:02:47.167Z,3.20
2022-08-26T03:05:18.111Z,3.05
2022-08-26T03:07:46.352Z,3.35
2022-08-26T03:10:13.841Z,3.30
2022-08-26T03:12:47.450Z,3.08
2022-08-26T03:15:18.483Z,3.05
2022-08-26T03:17:48.286Z,3.33
2022-08-26T03:20:17.508Z,3.70
2022-08-26T03:22:46.373Z,3.38
2022-08-26T03:25:16.916Z,3.17
2022-08-26T03:27:44.412Z,3.17
2022-08-26T03:30:32.225Z,3.20
2022-08-26T03:33:01.105Z,3.20
2022-08-26T03:35:29.389Z,3.28
2022-08-26T03:37:56.933Z,2.90
2022-08-26T03:40:25.195Z,2.72
2022-08-26T03:42:56.200Z,2.58
2022-08-26T03:45:23.417Z,3.10
2022-08-26T03:47:52.178Z,2.72
2022-08-26T03:50:23.136Z,3.28
2022-08-26T03:52:53.704Z,3.13
2022-08-26T03:55:27.314Z,2.80
2022-08-26T03:57:54.974Z,2.88
2022-08-26T04:00:23.149Z,2.95
2022-08-26T04:02:53.391Z,3.05
2022-08-26T04:05:23.875Z,3.10
2022-08-26T04:07:51.854Z,3.10
2022-08-26T04:10:29.037Z,3.78
2022-08-26T04:13:03.773Z,3.22
2022-08-26T04:15:31.286Z,3.30
2022-08-26T04:17:58.546Z,3.50
2022-08-26T04:20:28.433Z,3.40
2022-08-26T04:22:55.874Z,3.88
2022-08-26T04:25:24.295Z,3.47
2022-08-26T04:27:51.554Z,3.60
2022-08-26T04:30:20.737Z,3.60
2022-08-26T04:32:49.825Z,3.50
2022-08-26T04:35:17.242Z,3.78
2022-08-26T04:37:44.352Z,3.78
2022-08-26T04:40:12.637Z,3.70
2022-08-26T04:42:39.742Z,3.50
2022-08-26T04:45:10.302Z,3.65
2022-08-26T04:47:37.914Z,3.42
2022-08-26T04:50:06.929Z,3.58
2022-08-26T04:52:36.202Z,3.33
2022-08-26T04:55:03.922Z,3.30
2022-08-26T04:57:33.779Z,3.42
2022-08-26T05:00:01.211Z,3.40
2022-08-26T05:02:29.338Z,3.33
2022-08-26T05:04:56.815Z,3.67
2022-08-26T05:07:24.337Z,3.40
2022-08-26T05:09:51.694Z,3.40
2022-08-26T05:12:18.881Z,4.70
2022-08-26T05:14:46.449Z,4.40
2022-08-26T05:17:15.020Z,5.00
2022-08-26T05:19:42.984Z,4.10
2022-08-26T05:22:10.539Z,5.05
2022-08-26T05:24:41.701Z,5.35
2022-08-26T05:27:11.837Z,4.57
2022-08-26T05:29:40.897Z,5.10
2022-08-26T05:32:08.310Z,5.57
2022-08-26T05:34:38.434Z,5.90
2022-08-26T05:37:06.900Z,5.53
2022-08-26T05:39:34.695Z,4.55
2022-08-26T05:42:04.026Z,5.05
2022-08-26T05:44:53.591Z,4.78
2022-08-26T05:47:18.444Z,5.30
2022-08-26T05:49:51.255Z,5.20
2022-08-26T05:54:46.468Z,5.22
2022-08-26T05:57:16.350Z,4.53
2022-08-26T05:59:46.025Z,4.95
2022-08-26T06:02:13.354Z,5.00
2022-08-26T06:04:41.129Z,5.93
2022-08-26T06:07:09.933Z,5.32
2022-08-26T06:09:39.757Z,5.13
2022-08-26T06:12:07.220Z,5.22
2022-08-26T06:14:35.310Z,4.88
2022-08-26T06:17:02.771Z,4.68
2022-08-26T06:19:32.781Z,5.00
2022-08-26T06:22:23.375Z,6.25
2022-08-26T06:25:11.003Z,5.18
2022-08-26T06:27:38.350Z,5.10
2022-08-26T06:30:07.117Z,4.78
2022-08-26T06:32:34.549Z,4.85
2022-08-26T06:35:02.473Z,5.57
2022-08-26T06:37:29.702Z,6.10
2022-08-26T06:39:57.694Z,6.07
2022-08-26T06:42:25.014Z,4.47
2022-08-26T06:44:52.353Z,5.10
2022-08-26T06:47:19.571Z,4.20
2022-08-26T06:49:46.655Z,4.40
2022-08-26T06:52:15.058Z,4.93
2022-08-26T06:57:14.369Z,4.47
2022-08-26T06:59:45.172Z,4.90
2022-08-26T07:02:13.829Z,5.03
2022-08-26T07:04:41.462Z,5.03
2022-08-26T07:07:09.705Z,5.32
2022-08-26T07:09:37.627Z,4.07
2022-08-26T07:12:06.872Z,3.88
2022-08-26T07:14:35.254Z,5.35
2022-08-26T07:17:03.223Z,4.38
2022-08-26T07:19:31.779Z,4.43
2022-08-26T07:22:04.980Z,4.00
2022-08-26T07:24:35.801Z,4.97
2022-08-26T07:27:08.751Z,4.20
2022-08-26T07:29:39.368Z,4.90
2022-08-26T07:32:07.983Z,4.60
2022-08-26T07:34:37.822Z,4.05
2022-08-26T07:37:05.802Z,4.72
2022-08-26T07:39:37.631Z,4.10
2022-08-26T07:42:12.589Z,5.10
2022-08-26T07:44:42.797Z,3.67
2022-08-26T07:47:24.667Z,3.55
2022-08-26T07:49:56.274Z,4.65
2022-08-26T07:52:27.642Z,3.80
2022-08-26T07:54:58.724Z,4.32
2022-08-26T07:57:28.073Z,3.83
2022-08-26T07:59:56.785Z,4.10
2022-08-26T08:02:28.230Z,3.67
2022-08-26T08:07:44.697Z,3.40
2022-08-26T08:10:20.981Z,3.67
2022-08-26T08:12:50.325Z,3.30
2022-08-26T08:15:21.223Z,3.90
2022-08-26T08:17:50.442Z,3.40
2022-08-26T08:20:21.228Z,3.90
2022-08-26T08:22:52.463Z,3.60
2022-08-26T08:25:22.773Z,3.53
2022-08-26T08:27:50.361Z,3.90
2022-08-26T08:30:22.942Z,3.25
2022-08-26T08:32:52.299Z,3.65
2022-08-26T08:35:24.049Z,3.67
2022-08-26T08:37:54.742Z,4.53
2022-08-26T08:40:26.881Z,3.80
2022-08-26T08:43:09.789Z,3.72
2022-08-26T08:45:52.563Z,3.65
2022-08-26T08:48:29.470Z,3.83
2022-08-26T08:51:23.588Z,3.63
2022-08-26T08:53:54.850Z,3.83
2022-08-26T08:56:35.184Z,3.80
2022-08-26T08:59:24.151Z,3.50
2022-08-26T09:02:30.101Z,4.00
2022-08-26T09:05:39.983Z,3.70
2022-08-26T09:08:19.723Z,3.97
2022-08-26T09:10:54.176Z,3.63
2022-08-26T09:13:25.184Z,3.65
2022-08-26T09:16:10.310Z,4.20
2022-08-26T09:18:59.730Z,4.45
2022-08-26T09:21:28.991Z,4.05
2022-08-26T09:23:58.087Z,3.83
2022-08-26T09:26:44.525Z,4.35
2022-08-26T09:29:42.218Z,3.58
2022-08-26T09:32:25.045Z,3.63
2022-08-26T09:35:07.555Z,3.70
2022-08-26T09:37:43.791Z,3.20
2022-08-26T09:40:30.886Z,4.18
2022-08-26T09:43:10.660Z,3.47
2022-08-26T09:45:41.228Z,3.97
2022-08-26T09:48:36.319Z,3.83
2022-08-26T09:51:30.652Z,3.50
2022-08-26T09:54:03.188Z,3.58
2022-08-26T09:56:38.498Z,3.85
2022-08-26T09:59:11.629Z,3.80
2022-08-26T10:01:43.170Z,3.72
2022-08-26T10:07:02.721Z,4.03
2022-08-26T10:09:37.595Z,3.37
2022-08-26T10:12:21.450Z,3.67
2022-08-26T10:14:56.234Z,4.30
2022-08-26T10:17:47.892Z,3.65
2022-08-26T10:20:24.142Z,3.80
2022-08-26T10:23:18.532Z,4.00
2022-08-26T10:26:08.625Z,3.88
2022-08-26T10:28:51.870Z,3.83
2022-08-26T10:31:38.187Z,4.20
2022-08-26T10:34:12.497Z,3.30
2022-08-26T10:37:16.067Z,4.50
2022-08-26T10:40:02.614Z,3.85
2022-08-26T10:42:38.821Z,3.70
2022-08-26T10:45:16.194Z,3.50
2022-08-26T10:47:59.400Z,4.45
2022-08-26T10:50:39.194Z,4.10
2022-08-26T10:53:51.710Z,4.10
2022-08-26T10:57:23.070Z,3.42
2022-08-26T11:00:00.371Z,3.83
2022-08-26T11:02:37.865Z,3.60
2022-08-26T11:05:20.019Z,3.40
2022-08-26T11:07:52.611Z,3.28
2022-08-26T11:10:22.789Z,3.47
2022-08-26T11:12:59.230Z,2.97
2022-08-26T11:15:27.986Z,3.38
2022-08-26T11:18:02.663Z,3.45
2022-08-26T11:20:41.569Z,3.25
2022-08-26T11:23:24.092Z,3.20
2022-08-26T11:25:57.497Z,3.10
2022-08-26T11:28:50.749Z,3.25
2022-08-26T11:31:19.367Z,2.70
2022-08-26T11:33:54.210Z,2.92
2022-08-26T11:36:40.913Z,2.97
2022-08-26T11:39:29.721Z,3.10
2022-08-26T11:42:20.098Z,3.10
2022-08-26T11:44:49.585Z,2.70
2022-08-26T11:47:29.300Z,2.60
2022-08-26T11:50:34.027Z,3.08
2022-08-26T11:53:06.095Z,3.28
2022-08-26T11:55:41.793Z,2.60
2022-08-26T11:58:13.496Z,2.78
2022-08-26T12:00:58.443Z,2.97
2022-08-26T12:03:45.309Z,2.95
2022-08-26T12:06:24.158Z,2.88
2022-08-26T12:08:55.569Z,2.80
2022-08-26T12:11:27.607Z,2.88
2022-08-26T12:14:19.525Z,2.85
2022-08-26T12:16:47.712Z,3.00
2022-08-26T12:19:32.727Z,2.20
2022-08-26T12:22:29.346Z,2.10
2022-08-26T12:25:01.195Z,2.40
2022-08-26T12:27:40.122Z,2.30
2022-08-26T12:30:26.163Z,2.20
2022-08-26T12:33:22.768Z,2.15
2022-08-26T12:35:56.266Z,2.40
2022-08-26T12:38:26.937Z,2.45
2022-08-26T12:40:57.042Z,2.25
2022-08-26T12:43:44.645Z,2.00
2022-08-26T12:46:24.610Z,2.20
2022-08-26T12:48:51.942Z,2.38
2022-08-26T12:51:29.951Z,2.20
2022-08-26T12:53:58.989Z,2.30
2022-08-26T12:56:39.752Z,2.30
2022-08-26T12:59:23.186Z,2.60
2022-08-26T13:01:52.428Z,2.50
2022-08-26T13:04:39.711Z,2.20
2022-08-26T13:07:24.941Z,2.30
2022-08-26T13:09:56.610Z,2.25
2022-08-26T13:12:37.450Z,2.30
2022-08-26T13:15:06.644Z,2.20
2022-08-26T13:17:35.905Z,2.03
2022-08-26T13:20:04.659Z,2.60
2022-08-26T13:22:33.345Z,2.35
2022-08-26T13:25:00.536Z,2.15
2022-08-26T13:27:28.564Z,2.10
2022-08-26T13:29:57.650Z,2.08
2022-08-26T13:32:27.333Z,2.40
2022-08-26T13:34:57.173Z,2.60
2022-08-26T13:37:34.874Z,2.10
2022-08-26T13:40:07.218Z,2.22
2022-08-26T13:42:34.749Z,2.20
2022-08-26T13:45:04.120Z,2.30
2022-08-26T13:47:31.567Z,2.15
2022-08-26T13:49:58.933Z,2.40
2022-08-26T13:52:30.625Z,2.10
2022-08-26T13:55:00.631Z,2.17
2022-08-26T13:57:30.451Z,2.60
2022-08-26T13:59:59.368Z,2.00
2022-08-26T14:02:28.482Z,2.05
2022-08-26T14:04:58.176Z,2.40
2022-08-26T14:07:26.245Z,2.50
2022-08-26T14:09:53.735Z,2.47
2022-08-26T14:12:21.267Z,2.50
2022-08-26T14:14:48.598Z,2.25
2022-08-26T14:17:24.657Z,2.17
2022-08-26T14:19:53.567Z,2.45
2022-08-26T14:22:22.409Z,2.10
2022-08-26T14:24:50.708Z,2.40
2022-08-26T14:27:18.343Z,2.20
2022-08-26T14:29:45.502Z,2.10
2022-08-26T14:32:27.206Z,2.10
2022-08-26T14:34:56.041Z,2.30
2022-08-26T14:37:23.345Z,3.03
2022-08-26T14:39:51.657Z,2.40
2022-08-26T14:42:27.883Z,2.60
2022-08-26T14:45:03.048Z,2.33
2022-08-26T14:47:30.657Z,2.55
2022-08-26T14:49:58.148Z,2.10
2022-08-26T14:52:25.462Z,2.15
2022-08-26T14:54:55.051Z,2.40
2022-08-26T14:57:22.674Z,2.97
2022-08-26T14:59:50.481Z,2.50
2022-08-26T15:02:32.661Z,2.30
2022-08-26T15:05:02.895Z,2.67
2022-08-26T15:07:30.682Z,2.30
2022-08-26T15:09:57.877Z,2.60
2022-08-26T15:12:25.010Z,2.30
2022-08-26T15:14:52.680Z,2.30
2022-08-26T15:17:19.826Z,2.55
2022-08-26T15:19:47.556Z,2.40
2022-08-26T15:22:15.046Z,2.25
2022-08-26T15:24:42.346Z,2.60
2022-08-26T15:27:09.630Z,2.60
2022-08-26T15:29:37.463Z,2.20
2022-08-26T15:32:05.148Z,2.40
2022-08-26T15:34:32.789Z,2.40
2022-08-26T15:37:00.019Z,2.78
2022-08-26T15:39:27.887Z,2.10
2022-08-26T15:41:56.304Z,2.47
2022-08-26T15:44:27.460Z,2.35
2022-08-26T15:46:58.397Z,2.38
2022-08-26T15:49:27.486Z,2.35
2022-08-26T15:51:55.003Z,2.42
2022-08-26T15:54:24.170Z,2.30
2022-08-26T15:56:53.025Z,2.60
2022-08-26T15:59:22.074Z,2.45
2022-08-26T16:01:50.955Z,2.47
2022-08-26T16:04:18.779Z,2.60
2022-08-26T16:06:50.006Z,2.95
2022-08-26T16:09:18.501Z,2.40
2022-08-26T16:11:50.490Z,2.78
2022-08-26T16:14:17.859Z,2.60
2022-08-26T16:16:45.388Z,2.42
2022-08-26T16:19:13.045Z,2.00
2022-08-26T16:21:41.433Z,2.40
2022-08-26T16:24:09.394Z,2.50
2022-08-26T16:26:39.725Z,2.50
2022-08-26T16:29:12.291Z,2.28
2022-08-26T16:31:40.010Z,2.58
2022-08-26T16:34:09.378Z,2.50
2022-08-26T16:36:39.109Z,2.38
2022-08-26T16:39:08.829Z,2.28
2022-08-26T16:41:36.962Z,2.85
2022-08-26T16:44:05.966Z,2.60
2022-08-26T16:46:35.026Z,2.10
2022-08-26T16:49:04.748Z,2.70
2022-08-26T16:51:32.721Z,2.80
2022-08-26T16:54:07.767Z,2.50
2022-08-26T16:56:35.729Z,2.50
2022-08-26T16:59:07.542Z,2.92
2022-08-26T17:01:34.716Z,2.58
2022-08-26T17:04:02.231Z,2.75
2022-08-26T17:06:29.773Z,2.83
2022-08-26T17:08:57.172Z,3.00
2022-08-26T17:11:24.363Z,2.78
2022-08-26T17:13:51.889Z,2.85
2022-08-26T17:16:21.285Z,2.88
2022-08-26T17:18:50.685Z,2.70
2022-08-26T17:21:18.312Z,2.60
2022-08-26T17:23:46.070Z,2.80
2022-08-26T17:26:13.221Z,2.90
2022-08-26T17:28:41.191Z,3.00
2022-08-26T17:31:12.112Z,2.80
2022-08-26T17:33:40.222Z,2.60
2022-08-26T17:36:09.073Z,2.90
2022-08-26T17:38:37.669Z,2.60
2022-08-26T17:41:10.470Z,2.55
2022-08-26T17:43:39.474Z,2.65
2022-08-26T17:46:11.614Z,2.60
2022-08-26T17:48:41.059Z,2.40
2022-08-26T17:51:12.053Z,2.60
2022-08-26T17:53:41.422Z,2.70
2022-08-26T17:56:15.894Z,2.75
2022-08-26T17:58:47.897Z,2.30
2022-08-26T18:01:20.496Z,2.75
2022-08-26T18:03:48.934Z,2.65
2022-08-26T18:06:16.499Z,2.67
2022-08-26T18:08:45.143Z,2.72
2022-08-26T18:11:17.558Z,2.72
2022-08-26T18:13:47.580Z,2.60
2022-08-26T18:16:18.091Z,3.13
2022-08-26T18:18:47.876Z,2.55
2022-08-26T18:21:18.762Z,2.65
2022-08-26T18:23:47.582Z,2.60
2022-08-26T18:26:22.729Z,2.95
2022-08-26T18:28:50.519Z,3.20
2022-08-26T18:31:18.445Z,3.47
2022-08-26T18:33:46.260Z,3.30
2022-08-26T18:36:25.057Z,3.25
2022-08-26T18:38:54.161Z,3.00
2022-08-26T18:41:25.258Z,3.20
2022-08-26T18:43:54.035Z,3.40
2022-08-26T18:46:27.782Z,2.90
2022-08-26T18:48:57.282Z,3.05
2022-08-26T18:51:31.070Z,3.00
2022-08-26T18:54:00.678Z,3.17
2022-08-26T18:56:29.150Z,3.70
2022-08-26T18:58:56.329Z,5.50
2022-08-26T19:01:27.415Z,5.82
2022-08-26T19:03:57.493Z,6.00
2022-08-26T19:06:27.549Z,5.90
2022-08-26T19:08:55.724Z,6.72
2022-08-26T19:11:32.217Z,6.70
2022-08-26T19:14:07.560Z,6.15
2022-08-26T19:16:36.665Z,6.57
2022-08-26T19:19:05.577Z,6.10
2022-08-26T19:21:36.367Z,6.30
2022-08-26T19:24:09.843Z,5.63
2022-08-26T19:26:38.875Z,5.70
2022-08-26T19:29:06.738Z,5.45
2022-08-26T19:31:34.671Z,5.65
2022-08-26T19:34:02.487Z,5.95
2022-08-26T19:36:31.002Z,5.97
2022-08-26T19:38:59.215Z,7.50
2022-08-26T19:41:36.887Z,7.60
2022-08-26T19:44:14.026Z,9.77
2022-08-26T19:46:41.990Z,10.50
2022-08-26T19:49:09.393Z,11.43
2022-08-26T19:51:37.013Z,11.68
2022-08-26T19:54:05.014Z,13.02
2022-08-26T19:56:32.533Z,12.70
2022-08-26T19:58:59.735Z,13.25
2022-08-26T20:01:27.165Z,13.18
2022-08-26T20:06:26.587Z,14.18
2022-08-26T20:08:56.171Z,13.43
2022-08-26T20:11:24.481Z,14.82
2022-08-26T20:13:51.700Z,14.85
2022-08-26T20:16:19.316Z,14.02
2022-08-26T20:19:05.879Z,13.98
2022-08-26T20:21:38.944Z,12.60
2022-08-26T20:24:18.046Z,12.50
2022-08-26T20:26:45.633Z,11.52
2022-08-26T20:29:17.950Z,11.10
2022-08-26T20:31:46.728Z,10.93
2022-08-26T20:34:18.109Z,14.63
2022-08-26T20:36:48.069Z,15.77
2022-08-26T20:39:17.406Z,16.55
2022-08-26T20:41:45.450Z,19.52
2022-08-26T20:44:14.044Z,20.90
2022-08-26T20:46:42.490Z,21.60
2022-08-26T20:49:10.200Z,21.75
2022-08-26T20:51:37.447Z,22.95
2022-08-26T20:54:06.978Z,21.35
2022-08-26T20:56:34.691Z,21.02
2022-08-26T20:59:03.742Z,19.55
2022-08-26T21:01:35.250Z,18.98
2022-08-26T21:04:09.201Z,19.35
2022-08-26T21:06:38.263Z,18.73
2022-08-26T21:09:09.833Z,17.67
2022-08-26T21:11:39.665Z,16.95
2022-08-26T21:14:16.774Z,16.08
2022-08-26T21:16:46.333Z,15.18
2022-08-26T21:19:18.074Z,14.23
2022-08-26T21:21:47.942Z,13.63
2022-08-26T21:24:16.332Z,13.05
2022-08-26T21:26:43.590Z,11.45
2022-08-26T21:29:12.075Z,10.80
2022-08-26T21:31:45.069Z,10.73
2022-08-26T21:34:16.796Z,9.80
2022-08-26T21:36:48.823Z,9.65
2022-08-26T21:39:17.349Z,9.63
2022-08-26T21:41:46.057Z,9.20
2022-08-26T21:44:16.861Z,9.15
2022-08-26T21:46:46.282Z,8.30
2022-08-26T21:49:18.404Z,8.02
2022-08-26T21:51:48.468Z,7.80
2022-08-26T21:54:18.169Z,8.10
2022-08-26T21:56:47.070Z,7.35
2022-08-26T21:59:19.140Z,6.82
2022-08-26T22:01:47.422Z,6.60
2022-08-26T22:04:16.121Z,6.72
2022-08-26T22:06:52.013Z,6.50
2022-08-26T22:09:26.877Z,6.57
2022-08-26T22:11:56.987Z,5.50
2022-08-26T22:14:30.765Z,5.90
2022-08-26T22:16:59.847Z,5.45
2022-08-26T22:19:27.516Z,5.32
2022-08-26T22:21:55.799Z,5.57
2022-08-26T22:24:26.930Z,5.22
2022-08-26T22:26:56.009Z,5.22
2022-08-26T22:29:25.058Z,5.22
2022-08-26T22:31:53.453Z,4.63
2022-08-26T22:34:23.080Z,4.65
2022-08-26T22:36:50.656Z,4.20
2022-08-26T22:39:24.350Z,5.05
2022-08-26T22:41:54.259Z,4.70
2022-08-26T22:44:22.206Z,5.60
2022-08-26T22:46:54.403Z,6.22
2022-08-26T22:49:22.242Z,7.63
2022-08-26T22:51:50.920Z,7.55
2022-08-26T22:54:18.364Z,7.10
2022-08-26T22:56:45.641Z,6.78
2022-08-26T22:59:13.829Z,7.30
2022-08-26T23:01:43.618Z,6.85
2022-08-26T23:04:11.865Z,6.68
2022-08-26T23:06:43.268Z,6.55
2022-08-26T23:09:18.795Z,6.47
2022-08-26T23:11:48.483Z,5.80
2022-08-26T23:14:18.562Z,6.03
2022-08-26T23:16:47.553Z,6.32
2022-08-26T23:19:18.525Z,5.68
2022-08-26T23:21:46.107Z,5.57
2022-08-26T23:24:14.281Z,5.90
2022-08-26T23:26:42.892Z,5.57
2022-08-26T23:29:13.385Z,5.38
2022-08-26T23:31:42.835Z,4.97
2022-08-26T23:34:29.948Z,4.88
2022-08-26T23:36:59.505Z,5.13
2022-08-26T23:39:29.318Z,4.90
2022-08-26T23:41:57.378Z,4.90
2022-08-26T23:44:26.687Z,5.03
2022-08-26T23:46:55.410Z,5.10
2022-08-26T23:49:23.192Z,4.20
2022-08-26T23:52:09.290Z,4.65
2022-08-26T23:54:38.890Z,4.47
2022-08-26T23:57:07.785Z,4.50
2022-08-26T23:59:39.089Z,4.70
